La Mucura, Puerto Rico
Current Conditions -  °F | °C
As of 6:50 PM on Thursday 20 Nov 2014 (Local Time) from TJBQ Reporting Station
Scattered Clouds Scattered Clouds  
Wind Chill: 75°   Ceiling: Unl
Heat Index: 75°   Visibility: 10mi
Dew Point: 70°   Wind: 3mph
Humidity: 83%   Direction: 150°SSE
Pressure: 29.98"   Gusts: NA
Location:  18.4739°N, 66.7295°W
Report Text: TJBQ 202250Z 15003KT 10SM SCT040 24/21 A2998 RMK RWY08 ATIS J
Loading
Personal Weather Stations






























Interactive Weather Map New forecast layout! Learn more

10-Day Weather Forecast

Advertisements
Track Severe Weather on mobile